Time;durP1;ratioP1;P1;durP2;ratioP2;P2;SDS_P1;SDS_P2;PMS_P1;PMS_P2;Temp;Humidity;BMP_temperature;BMP_pressure;BME280_temperature;BME280_humidity;BME280_pressure;Samples;Min_cycle;Max_cycle;Signal;HPM_P1;HPM_P2
2022/05/07 00:01:27;;;;;;;847.93;490.30;;;;;;;12.43;36.90;101501.34;1760314;81;21328;-59
2022/05/07 00:03:54;;;;;;;853.33;486.32;;;;;;;12.44;36.93;101503.79;1760336;81;21185;-59
2022/05/07 00:06:22;;;;;;;865.90;502.82;;;;;;;12.41;36.89;101508.84;1761950;80;21025;-58
2022/05/07 00:08:49;;;;;;;796.42;461.65;;;;;;;12.32;37.08;101507.23;1760336;80;21491;-68
2022/05/07 00:11:20;;;;;;;865.27;486.62;;;;;;;12.30;37.14;101510.48;1760610;81;21551;-57
2022/05/07 00:13:48;;;;;;;847.85;483.00;;;;;;;12.28;37.25;101513.77;1749352;80;21021;-57
2022/05/07 00:19:00;;;;;;;842.62;484.80;;;;;;;12.28;37.19;101519.00;1760966;80;21422;-58
2022/05/07 00:21:27;;;;;;;814.00;458.05;;;;;;;12.28;37.17;101514.26;1760807;81;20996;-60
2022/05/07 00:23:55;;;;;;;778.25;447.20;;;;;;;12.21;37.37;101514.58;1760489;80;21041;-58
2022/05/07 00:26:22;;;;;;;734.98;404.85;;;;;;;12.15;37.37;101505.58;1760285;81;21016;-60
2022/05/07 00:28:49;;;;;;;752.05;431.00;;;;;;;12.12;37.47;101509.81;1760251;80;22398;-57
2022/05/07 00:31:16;;;;;;;738.48;417.25;;;;;;;12.06;37.52;101508.69;1760906;81;21433;-58
2022/05/07 00:33:44;;;;;;;733.00;414.97;;;;;;;12.00;37.53;101504.09;1760370;81;21071;-59
2022/05/07 00:36:12;;;;;;;687.88;383.23;;;;;;;11.96;37.62;101505.88;1760481;81;20977;-57
2022/05/07 00:38:39;;;;;;;676.65;373.27;;;;;;;11.97;37.56;101508.82;1728723;81;21052;-70
2022/05/07 00:41:06;;;;;;;695.62;399.15;;;;;;;11.93;37.58;101501.33;1760687;80;22184;-58
2022/05/07 00:43:35;;;;;;;656.27;371.00;;;;;;;11.96;37.53;101503.27;1760885;81;21093;-59
2022/05/07 00:46:03;;;;;;;675.80;375.13;;;;;;;11.96;37.36;101498.86;1729782;81;21454;-59
2022/05/07 00:48:31;;;;;;;641.23;354.57;;;;;;;11.95;37.45;101499.03;1760413;81;21033;-69
2022/05/07 00:53:45;;;;;;;634.70;348.30;;;;;;;11.90;37.39;101502.14;1760648;80;22173;-58
2022/05/07 00:56:12;;;;;;;618.95;337.85;;;;;;;11.92;37.30;101502.78;1760449;81;21103;-63
2022/05/07 00:58:40;;;;;;;615.02;344.87;;;;;;;11.88;37.29;101500.97;1760217;80;21024;-60
2022/05/07 01:01:08;;;;;;;594.62;328.70;;;;;;;11.80;37.37;101501.42;1760812;81;21037;-61
2022/05/07 01:03:36;;;;;;;590.20;326.25;;;;;;;11.80;37.27;101502.73;1761064;80;21016;-58
2022/05/07 01:06:04;;;;;;;602.50;327.30;;;;;;;11.78;37.32;101497.68;1729286;81;21103;-69
2022/05/07 01:08:33;;;;;;;625.45;341.27;;;;;;;11.82;37.26;101500.76;1761620;80;21003;-62
2022/05/07 01:11:00;;;;;;;582.65;321.10;;;;;;;11.93;37.05;101501.33;1760148;81;21527;-59
2022/05/07 01:13:27;;;;;;;615.80;342.45;;;;;;;11.62;37.42;101501.53;1760245;81;20934;-60
2022/05/07 01:15:56;;;;;;;614.58;325.25;;;;;;;11.68;37.38;101504.83;1760687;80;20966;-61
2022/05/07 01:18:25;;;;;;;613.83;329.90;;;;;;;11.62;37.54;101502.84;1759109;81;21308;-68
2022/05/07 01:20:55;;;;;;;605.52;324.82;;;;;;;11.55;37.65;101497.43;1759959;81;21424;-57
2022/05/07 01:23:22;;;;;;;603.95;332.60;;;;;;;11.64;37.59;101496.98;1760660;80;20998;-56
2022/05/07 01:25:51;;;;;;;613.87;329.85;;;;;;;11.55;37.70;101495.31;1760350;80;20966;-56
2022/05/07 01:28:18;;;;;;;627.00;332.85;;;;;;;11.60;37.61;101496.98;1760040;80;20986;-58
2022/05/07 01:30:47;;;;;;;587.10;317.05;;;;;;;11.59;37.65;101498.78;1759304;81;21281;-60
2022/05/07 01:33:15;;;;;;;613.10;332.45;;;;;;;11.56;37.72;101499.58;1761230;80;21043;-57
2022/05/07 01:35:43;;;;;;;613.37;330.40;;;;;;;11.47;37.84;101503.94;1761642;80;20910;-57
2022/05/07 01:38:11;;;;;;;600.25;317.07;;;;;;;11.39;38.05;101506.03;1759163;81;21054;-60
2022/05/07 01:40:39;;;;;;;642.25;343.30;;;;;;;11.45;37.94;101500.19;1759205;81;21935;-57
2022/05/07 01:43:07;;;;;;;587.42;311.05;;;;;;;11.31;38.23;101499.97;1760041;80;21570;-58
2022/05/07 01:45:35;;;;;;;585.40;312.17;;;;;;;11.36;38.20;101500.30;1760031;81;21555;-57
2022/05/07 01:48:10;;;;;;;626.60;338.50;;;;;;;11.36;38.23;101495.90;1761134;80;20941;-57
2022/05/07 01:50:42;;;;;;;609.17;329.18;;;;;;;11.42;38.19;101499.20;1759191;81;21550;-57
2022/05/07 01:53:12;;;;;;;629.08;339.50;;;;;;;11.41;38.17;101498.88;1760835;80;21080;-56
2022/05/07 01:55:42;;;;;;;602.23;331.43;;;;;;;11.38;38.30;101500.98;1760980;80;21143;-58
2022/05/07 01:58:09;;;;;;;587.72;313.57;;;;;;;11.37;38.37;101498.86;1759883;80;21009;-63
2022/05/07 02:00:40;;;;;;;638.33;332.45;;;;;;;11.34;38.54;101493.95;1760829;80;21144;-56
2022/05/07 02:03:07;;;;;;;602.08;307.37;;;;;;;11.20;38.75;101499.27;1761031;80;20981;-55
2022/05/07 02:05:34;;;;;;;599.90;310.02;;;;;;;11.21;38.71;101505.30;1761019;80;21038;-55
2022/05/07 02:08:04;;;;;;;594.67;307.10;;;;;;;11.24;38.79;101510.70;1759915;81;21161;-65
2022/05/07 02:10:31;;;;;;;585.40;302.02;;;;;;;11.31;38.69;101511.72;1760726;80;21847;-55
2022/05/07 02:13:01;;;;;;;550.87;276.35;;;;;;;11.29;38.62;101515.80;1729334;81;21092;-57
2022/05/07 02:15:30;;;;;;;599.88;316.57;;;;;;;11.31;38.69;101511.23;1761015;80;20983;-56
2022/05/07 02:17:58;;;;;;;550.83;288.95;;;;;;;11.32;38.61;101514.65;1753073;80;21593;-64
2022/05/07 02:20:25;;;;;;;555.10;292.35;;;;;;;11.36;38.50;101508.95;1756468;80;21732;-56
2022/05/07 02:22:57;;;;;;;539.13;271.05;;;;;;;11.39;38.37;101512.55;1760063;80;20965;-55
2022/05/07 02:25:25;;;;;;;544.95;282.87;;;;;;;11.37;38.36;101507.19;1761279;80;20982;-56
2022/05/07 02:27:54;;;;;;;519.15;258.47;;;;;;;11.50;38.23;101517.98;1759463;81;21452;-63
2022/05/07 02:30:21;;;;;;;525.00;269.98;;;;;;;11.61;37.94;101519.00;1760143;80;22100;-56
2022/05/07 02:32:50;;;;;;;501.43;251.45;;;;;;;11.70;37.72;101523.75;1760753;80;21394;-57
2022/05/07 02:35:18;;;;;;;510.50;260.20;;;;;;;11.78;37.73;101527.72;1760571;80;21014;-58
2022/05/07 02:37:47;;;;;;;520.08;265.62;;;;;;;11.83;37.58;101534.61;1748669;80;21029;-67
2022/05/07 02:40:14;;;;;;;533.12;275.50;;;;;;;11.97;37.31;101534.48;1759363;81;21467;-60
2022/05/07 02:42:41;;;;;;;541.02;273.68;;;;;;;12.03;37.22;101536.93;1729453;80;21807;-57
2022/05/07 02:45:13;;;;;;;505.70;251.02;;;;;;;12.14;37.06;101544.47;1760625;80;22249;-58
2022/05/07 02:47:41;;;;;;;503.20;253.18;;;;;;;12.20;36.98;101551.67;1761018;80;21499;-56
2022/05/07 02:50:10;;;;;;;505.03;257.73;;;;;;;12.30;36.92;101552.31;1759238;81;22176;-57
2022/05/07 02:52:38;;;;;;;504.72;251.18;;;;;;;12.40;36.81;101558.70;1761671;80;21040;-55
2022/05/07 02:55:08;;;;;;;516.15;265.95;;;;;;;12.55;36.61;101553.15;1760030;81;21014;-56
2022/05/07 02:57:36;;;;;;;492.83;254.35;;;;;;;12.70;36.36;101564.27;1761499;80;21222;-65
2022/05/07 03:00:04;;;;;;;480.45;254.47;;;;;;;12.85;36.10;101564.73;1759212;81;20982;-65
2022/05/07 03:02:33;;;;;;;491.10;250.70;;;;;;;13.27;35.60;101569.42;1759970;80;22389;-57
2022/05/07 03:05:00;;;;;;;507.75;266.23;;;;;;;13.77;35.02;101563.80;1761606;79;21033;-57
2022/05/07 03:07:27;;;;;;;509.63;270.85;;;;;;;14.11;34.27;101566.06;1761531;79;20971;-57
2022/05/07 03:09:56;;;;;;;497.80;251.98;;;;;;;14.30;33.80;101563.97;1760699;81;22341;-57
2022/05/07 03:12:23;;;;;;;517.15;278.00;;;;;;;14.57;33.54;101568.70;1760722;79;21472;-57
2022/05/07 03:14:51;;;;;;;519.05;277.50;;;;;;;14.91;33.21;101577.91;1761747;79;21376;-56
2022/05/07 03:17:18;;;;;;;484.48;262.05;;;;;;;15.12;32.63;101581.16;1760882;81;20990;-57
2022/05/07 03:19:46;;;;;;;514.27;280.62;;;;;;;15.51;32.33;101581.37;1750145;79;21119;-63
2022/05/07 03:22:14;;;;;;;492.63;267.27;;;;;;;16.03;31.56;101580.39;1760728;81;21630;-64
2022/05/07 03:24:43;;;;;;;476.40;261.73;;;;;;;16.56;30.94;101577.45;1748643;81;21296;-58
2022/05/07 03:27:10;;;;;;;469.25;255.80;;;;;;;17.00;30.51;101570.59;1761905;79;21500;-57
2022/05/07 03:29:38;;;;;;;475.70;262.77;;;;;;;17.54;30.21;101573.83;1761631;79;21026;-56
2022/05/07 03:32:08;;;;;;;486.13;274.33;;;;;;;18.09;29.23;101572.48;1760890;79;21163;-57
2022/05/07 03:34:36;;;;;;;467.40;266.53;;;;;;;18.41;28.63;101575.68;1762044;79;21253;-57
2022/05/07 03:37:04;;;;;;;483.13;265.63;;;;;;;18.69;28.48;101570.70;1761356;81;22054;-57
2022/05/07 03:39:33;;;;;;;440.57;249.07;;;;;;;19.09;27.83;101564.04;1761824;79;21127;-58
2022/05/07 03:42:00;;;;;;;445.63;247.67;;;;;;;19.49;27.28;101567.89;1761046;81;21322;-57
2022/05/07 03:44:28;;;;;;;470.30;266.67;;;;;;;19.58;26.88;101567.94;1760216;81;21780;-57
2022/05/07 03:46:56;;;;;;;474.43;270.83;;;;;;;19.79;26.52;101572.16;1762209;79;21820;-57
2022/05/07 03:49:23;;;;;;;461.30;262.17;;;;;;;19.95;25.95;101570.84;1760985;81;22121;-57
2022/05/07 03:54:38;;;;;;;444.63;256.13;;;;;;;20.38;25.66;101580.20;1762125;79;21493;-56
2022/05/07 03:57:06;;;;;;;428.90;253.73;;;;;;;20.51;25.20;101585.44;1762251;79;20961;-58
2022/05/07 03:59:34;;;;;;;417.63;237.53;;;;;;;20.69;24.96;101583.88;1762179;79;21191;-57
2022/05/07 04:02:02;;;;;;;417.40;241.07;;;;;;;20.79;24.55;101574.89;1761718;79;20986;-57
2022/05/07 04:04:32;;;;;;;432.83;248.77;;;;;;;20.89;24.44;101580.00;1760315;81;21075;-57
2022/05/07 04:07:02;;;;;;;410.23;232.73;;;;;;;20.92;24.19;101577.95;1759856;81;20939;-57
2022/05/07 04:09:29;;;;;;;406.50;235.33;;;;;;;21.07;24.39;101579.21;1761187;80;21554;-59
2022/05/07 04:11:57;;;;;;;393.73;223.87;;;;;;;21.17;24.12;101576.55;1759607;81;21277;-61
2022/05/07 04:14:25;;;;;;;379.77;220.37;;;;;;;21.18;23.97;101584.30;1761323;80;21937;-57
2022/05/07 04:16:54;;;;;;;382.63;226.27;;;;;;;21.35;24.12;101585.86;1761224;81;20989;-58
2022/05/07 04:19:22;;;;;;;399.77;231.83;;;;;;;21.50;23.79;101588.94;1760962;81;20951;-58
2022/05/07 04:21:50;;;;;;;410.40;238.50;;;;;;;21.48;23.74;101587.53;1760799;81;21092;-66
2022/05/07 04:24:19;;;;;;;388.87;228.00;;;;;;;21.71;23.62;101577.58;1759403;81;21791;-56
2022/05/07 04:26:48;;;;;;;380.33;224.73;;;;;;;21.70;23.93;101583.89;1749006;81;21883;-56
2022/05/07 04:29:16;;;;;;;368.47;211.23;;;;;;;21.95;23.60;101589.08;1760298;81;21075;-56
2022/05/07 04:31:45;;;;;;;365.43;211.60;;;;;;;22.09;23.25;101587.34;1759453;81;20978;-57
2022/05/07 04:34:13;;;;;;;328.40;186.93;;;;;;;22.24;23.25;101586.14;1759852;81;21242;-64
2022/05/07 04:36:41;;;;;;;330.37;182.10;;;;;;;22.37;22.73;101584.59;1760420;80;21943;-56
2022/05/07 04:39:10;;;;;;;321.07;177.13;;;;;;;22.56;22.45;101583.45;1759081;80;20939;-56
2022/05/07 04:41:38;;;;;;;317.87;173.03;;;;;;;22.87;22.65;101577.49;1758100;80;20985;-59
2022/05/07 04:44:07;;;;;;;304.57;174.00;;;;;;;23.25;22.02;101580.18;1761454;80;21434;-58
2022/05/07 04:46:34;;;;;;;280.03;155.73;;;;;;;23.51;21.44;101579.64;1729041;81;21425;-55
2022/05/07 04:49:05;;;;;;;285.40;161.77;;;;;;;23.58;21.55;101582.70;1759464;81;21265;-56
2022/05/07 04:51:32;;;;;;;259.80;145.97;;;;;;;24.01;21.44;101584.30;1759832;81;21044;-63
2022/05/07 04:54:05;;;;;;;276.40;154.23;;;;;;;24.40;20.67;101583.13;1758659;81;21768;-57
2022/05/07 04:56:32;;;;;;;242.13;139.07;;;;;;;24.72;20.44;101582.52;1760800;80;21539;-55
2022/05/07 04:59:02;;;;;;;288.70;161.00;;;;;;;25.03;19.99;101580.27;1759696;81;21849;-57
2022/05/07 05:01:34;;;;;;;271.80;148.67;;;;;;;25.12;19.91;101580.17;1759736;80;21848;-55
2022/05/07 05:04:03;;;;;;;247.63;141.70;;;;;;;25.32;19.68;101577.73;1728756;81;21725;-58
2022/05/07 05:06:33;;;;;;;262.53;148.90;;;;;;;25.45;19.46;101577.34;1760137;81;21088;-56
2022/05/07 05:09:06;;;;;;;252.30;142.93;;;;;;;25.83;19.34;101580.16;1761858;79;21258;-56
2022/05/07 05:11:35;;;;;;;271.20;157.57;;;;;;;25.76;19.06;101577.68;1733402;81;20993;-59
2022/05/07 05:15:01;;;;;;;246.27;144.03;;;;;;;25.85;19.01;101585.53;1761389;81;21193;-63
2022/05/07 05:16:33;;;;;;;281.47;152.63;;;;;;;25.64;18.97;101577.80;1756877;81;21567;-56
2022/05/07 05:19:01;;;;;;;281.43;160.67;;;;;;;25.53;19.08;101577.95;1761024;79;21073;-55
2022/05/07 05:21:29;;;;;;;276.00;156.87;;;;;;;25.64;19.00;101575.13;1761570;79;21084;-61
2022/05/07 05:24:01;;;;;;;258.30;153.53;;;;;;;25.64;19.26;101579.14;1760468;81;22049;-55
2022/05/07 05:26:29;;;;;;;271.50;161.77;;;;;;;25.89;18.85;101579.16;1760988;79;21152;-57
2022/05/07 05:28:58;;;;;;;283.97;167.17;;;;;;;25.94;19.15;101577.86;1761194;81;21016;-56
2022/05/07 05:31:25;;;;;;;244.30;139.43;;;;;;;26.26;19.17;101579.21;1761043;81;21479;-61
2022/05/07 05:34:00;;;;;;;284.50;169.03;;;;;;;26.68;18.18;101578.45;1759754;81;21068;-57
2022/05/07 05:36:35;;;;;;;305.40;179.03;;;;;;;26.74;18.13;101576.60;1760574;79;21013;-54
2022/05/07 05:39:06;;;;;;;333.33;199.13;;;;;;;26.73;18.25;101583.02;1761324;79;21215;-54
2022/05/07 05:41:33;;;;;;;309.57;188.60;;;;;;;26.79;18.03;101584.14;1761132;79;21037;-55
2022/05/07 05:44:01;;;;;;;339.63;217.03;;;;;;;26.49;18.27;101583.95;1761960;79;20963;-55
2022/05/07 05:46:29;;;;;;;345.23;208.63;;;;;;;26.56;18.12;101589.35;1760253;81;22146;-56
2022/05/07 05:48:56;;;;;;;330.37;204.10;;;;;;;26.61;18.29;101591.25;1762042;79;21440;-57
2022/05/07 05:51:24;;;;;;;372.80;228.13;;;;;;;26.74;18.23;101578.73;1760464;81;21163;-55
2022/05/07 05:53:52;;;;;;;371.03;232.33;;;;;;;26.92;17.74;101582.32;1762000;79;21044;-55
2022/05/07 05:56:20;;;;;;;398.80;255.90;;;;;;;26.82;17.90;101576.11;1762239;79;20982;-59
2022/05/07 05:58:50;;;;;;;413.63;262.20;;;;;;;26.91;18.11;101578.04;1749580;81;21674;-54
2022/05/07 06:01:19;;;;;;;405.67;252.43;;;;;;;27.02;18.46;101578.10;1760925;81;21557;-55
2022/05/07 06:03:48;;;;;;;375.67;230.23;;;;;;;27.15;18.28;101570.95;1749328;79;21859;-54
2022/05/07 06:06:17;;;;;;;298.40;179.73;;;;;;;27.36;17.68;101569.95;1760604;81;20982;-55
2022/05/07 06:08:46;;;;;;;262.90;159.20;;;;;;;27.25;17.29;101565.64;1761270;79;21301;-55
2022/05/07 06:11:13;;;;;;;293.17;177.70;;;;;;;26.93;17.29;101568.41;1760658;81;21037;-55
2022/05/07 06:13:43;;;;;;;325.23;197.03;;;;;;;26.79;17.51;101577.98;1761957;79;21061;-56
2022/05/07 06:16:09;;;;;;;297.17;186.70;;;;;;;26.56;17.49;101573.30;1761370;81;21173;-54
2022/05/07 06:18:37;;;;;;;283.10;169.93;;;;;;;26.37;18.06;101574.75;1761141;79;20977;-55
2022/05/07 06:21:06;;;;;;;242.30;142.23;;;;;;;26.27;17.85;101578.14;1761063;79;21064;-62
2022/05/07 06:23:35;;;;;;;240.07;141.40;;;;;;;26.27;17.71;101580.02;1761193;79;21493;-54
2022/05/07 06:28:50;;;;;;;199.37;121.63;;;;;;;26.67;17.94;101567.49;1760509;81;21477;-60
2022/05/07 06:31:17;;;;;;;204.67;125.23;;;;;;;26.83;17.89;101559.81;1761802;79;21366;-57
2022/05/07 06:33:45;;;;;;;179.53;113.83;;;;;;;26.86;17.66;101563.31;1761123;81;20950;-57
2022/05/07 06:36:15;;;;;;;109.93;69.03;;;;;;;26.65;17.84;101555.70;1762104;79;20954;-65
2022/05/07 06:38:42;;;;;;;63.30;40.97;;;;;;;26.75;17.25;101562.19;1761002;81;21351;-57
2022/05/07 06:41:11;;;;;;;46.87;30.73;;;;;;;26.43;16.90;101554.45;1761615;79;21547;-58
2022/05/07 06:43:47;;;;;;;71.93;46.00;;;;;;;26.22;16.55;101550.05;1760975;81;20873;-62
2022/05/07 06:46:25;;;;;;;70.63;44.50;;;;;;;26.25;17.18;101547.38;1737657;81;21045;-64
2022/05/07 06:49:00;;;;;;;57.43;37.23;;;;;;;26.35;17.13;101548.25;1760140;79;21279;-57
2022/05/07 06:51:31;;;;;;;25.97;15.77;;;;;;;26.33;17.27;101544.22;1761102;79;21069;-58
2022/05/07 06:53:58;;;;;;;66.17;40.20;;;;;;;26.42;16.47;101534.14;1762222;79;21168;-58
2022/05/07 06:56:25;;;;;;;68.70;42.53;;;;;;;26.42;16.81;101533.34;1761245;81;21016;-61
2022/05/07 06:58:53;;;;;;;42.63;25.80;;;;;;;26.37;17.25;101535.45;1760436;81;21045;-61
2022/05/07 07:01:20;;;;;;;48.83;31.77;;;;;;;26.42;16.87;101536.81;1760484;81;21477;-57
2022/05/07 07:03:48;;;;;;;45.00;28.37;;;;;;;26.53;16.97;101527.55;1751000;79;20897;-64
2022/05/07 07:06:17;;;;;;;36.27;22.83;;;;;;;26.84;16.80;101529.31;1760323;81;22296;-59
2022/05/07 07:08:44;;;;;;;19.13;10.73;;;;;;;26.79;16.42;101530.63;1760502;80;21802;-61
2022/05/07 07:11:12;;;;;;;7.00;3.50;;;;;;;26.52;16.00;101527.26;1759869;81;21467;-60
2022/05/07 07:13:41;;;;;;;6.43;2.87;;;;;;;26.19;15.47;101521.95;1760974;80;20964;-59
2022/05/07 07:16:07;;;;;;;8.97;2.13;;;;;;;26.07;15.62;101520.53;1759920;80;21016;-62
2022/05/07 07:18:34;;;;;;;5.10;2.30;;;;;;;26.05;15.13;101527.45;1760768;80;21230;-55
2022/05/07 07:21:01;;;;;;;6.30;3.13;;;;;;;25.76;15.26;101515.42;1759501;80;20871;-58
2022/05/07 07:23:27;;;;;;;7.23;3.80;;;;;;;25.53;15.51;101514.67;1759883;81;21462;-57
2022/05/07 07:25:54;;;;;;;6.30;3.40;;;;;;;25.37;15.79;101517.72;1759533;81;20969;-64
2022/05/07 07:28:20;;;;;;;7.93;4.33;;;;;;;25.57;16.25;101501.63;1760554;80;21078;-57
2022/05/07 07:30:47;;;;;;;9.10;4.80;;;;;;;25.60;15.59;101494.45;1748274;81;22003;-58
2022/05/07 07:33:14;;;;;;;10.33;5.20;;;;;;;25.68;15.85;101503.33;1760646;80;21014;-57
2022/05/07 07:35:43;;;;;;;11.93;5.87;;;;;;;25.71;15.72;101504.17;1759911;81;21538;-60
2022/05/07 07:38:12;;;;;;;8.80;5.13;;;;;;;25.57;15.84;101505.13;1760307;80;21037;-60
2022/05/07 07:40:41;;;;;;;10.80;5.23;;;;;;;25.55;16.34;101495.22;1759754;81;21079;-61
2022/05/07 07:43:07;;;;;;;10.97;6.90;;;;;;;25.68;16.13;101487.31;1760320;80;21163;-56
2022/05/07 07:48:19;;;;;;;10.63;6.07;;;;;;;26.13;16.16;101481.55;1760803;80;21521;-59
2022/05/07 07:50:50;;;;;;;20.77;11.87;;;;;;;26.40;15.93;101485.48;1747715;81;21134;-63
2022/05/07 07:53:15;;;;;;;18.27;11.50;;;;;;;26.50;15.66;101475.92;1759646;81;21493;-57
2022/05/07 07:55:42;;;;;;;19.10;11.67;;;;;;;26.61;15.70;101462.34;1759837;81;21264;-55
2022/05/07 07:58:10;;;;;;;16.77;11.37;;;;;;;26.51;15.60;101454.80;1728694;81;21010;-62
2022/05/07 08:00:38;;;;;;;18.27;10.37;;;;;;;26.41;15.75;101466.23;1760204;81;21795;-64
2022/05/07 08:03:12;;;;;;;20.27;11.93;;;;;;;26.32;15.79;101463.22;1759560;81;20986;-56
2022/05/07 08:05:39;;;;;;;17.67;10.90;;;;;;;26.38;15.97;101448.03;1760381;81;21092;-60
2022/05/07 08:13:42;;;;;;;24.90;13.57;;;;;;;26.40;15.87;101449.39;1761002;79;21044;-56
2022/05/07 08:16:09;;;;;;;23.97;13.73;;;;;;;26.65;15.68;101446.58;1761332;81;20986;-56
2022/05/07 08:18:36;;;;;;;25.00;15.60;;;;;;;26.98;15.93;101444.55;1761303;81;20990;-56
2022/05/07 08:21:05;;;;;;;26.60;16.03;;;;;;;27.13;15.72;101447.29;1761572;81;21086;-57
2022/05/07 08:23:31;;;;;;;25.70;14.93;;;;;;;26.97;15.40;101445.06;1761689;79;20894;-57
2022/05/07 08:25:58;;;;;;;27.50;16.20;;;;;;;26.76;15.57;101435.38;1761342;79;21072;-56
2022/05/07 08:28:25;;;;;;;25.10;15.27;;;;;;;27.07;15.79;101430.91;1762277;79;21130;-55
2022/05/07 08:30:53;;;;;;;23.17;13.30;;;;;;;27.32;15.54;101420.81;1761609;81;21488;-56
2022/05/07 08:33:21;;;;;;;18.93;11.20;;;;;;;27.43;15.06;101431.80;1763089;79;21170;-56
2022/05/07 08:35:47;;;;;;;19.87;13.10;;;;;;;27.15;15.29;101417.03;1749593;79;21025;-61
2022/05/07 08:38:14;;;;;;;20.43;12.53;;;;;;;27.11;15.85;101418.63;1761305;81;21324;-55
2022/05/07 08:40:44;;;;;;;18.10;10.60;;;;;;;27.33;15.47;101417.06;1761496;79;21507;-55
2022/05/07 08:43:10;;;;;;;17.47;10.43;;;;;;;27.26;15.06;101424.01;1760987;81;21055;-62
2022/05/07 08:45:39;;;;;;;11.97;7.57;;;;;;;27.03;15.23;101409.77;1761017;81;22073;-62
2022/05/07 08:48:08;;;;;;;9.87;6.40;;;;;;;26.91;15.53;101416.70;1761406;79;20878;-56
2022/05/07 08:50:34;;;;;;;9.73;5.83;;;;;;;26.93;14.15;101410.03;1761137;81;21460;-56
2022/05/07 08:53:02;;;;;;;9.90;6.80;;;;;;;26.53;14.22;101410.69;1762187;79;21072;-57
2022/05/07 08:55:29;;;;;;;12.60;6.70;;;;;;;26.09;14.38;101400.82;1760932;81;21029;-63
2022/05/07 08:57:57;;;;;;;10.43;6.97;;;;;;;25.95;14.54;101402.63;1762444;79;22285;-56
2022/05/07 09:00:26;;;;;;;12.97;7.60;;;;;;;25.94;15.15;101401.00;1762101;79;21065;-57
2022/05/07 09:02:55;;;;;;;13.20;8.30;;;;;;;26.05;15.13;101391.72;1762209;79;20965;-57
2022/05/07 09:05:34;;;;;;;14.87;8.57;;;;;;;26.21;15.06;101388.05;1761796;79;21086;-59
2022/05/07 09:08:03;;;;;;;14.43;7.85;;;;;;;26.45;15.44;101381.76;1762060;81;21044;-57
2022/05/07 09:10:33;;;;;;;13.30;8.63;;;;;;;26.96;15.46;101379.78;1761403;81;21243;-57
2022/05/07 09:13:14;;;;;;;17.27;11.43;;;;;;;27.46;15.12;101376.34;1762246;79;21562;-56
2022/05/07 09:15:58;;;;;;;15.63;10.33;;;;;;;27.78;14.96;101357.88;1761373;81;21807;-56
2022/05/07 09:18:28;;;;;;;15.27;10.67;;;;;;;27.87;14.82;101363.73;1762509;79;21040;-56
2022/05/07 09:21:17;;;;;;;15.10;9.60;;;;;;;27.79;14.65;101367.50;1760679;81;20986;-63
2022/05/07 09:23:47;;;;;;;17.87;10.93;;;;;;;27.67;14.94;101370.45;1761052;81;21175;-57
2022/05/07 09:26:26;;;;;;;14.67;10.57;;;;;;;27.62;14.92;101365.91;1761992;79;20989;-63
2022/05/07 09:28:54;;;;;;;19.10;13.20;;;;;;;27.58;14.89;101368.06;1751030;81;21264;-56
2022/05/07 09:31:28;;;;;;;25.40;13.93;;;;;;;27.59;15.06;101381.71;1761814;79;21005;-57
2022/05/07 09:33:56;;;;;;;19.50;14.47;;;;;;;27.64;15.04;101372.32;1752789;79;21033;-56
2022/05/07 09:36:23;;;;;;;19.77;14.77;;;;;;;27.61;14.74;101371.52;1760621;81;22273;-57
2022/05/07 09:39:01;;;;;;;23.20;16.77;;;;;;;27.47;14.61;101362.45;1761505;79;20934;-59
2022/05/07 09:41:28;;;;;;;21.10;15.43;;;;;;;27.42;14.55;101353.86;1761662;79;20978;-58
2022/05/07 09:43:56;;;;;;;24.57;17.70;;;;;;;27.36;14.44;101355.75;1760738;81;21032;-64
2022/05/07 09:46:23;;;;;;;27.87;20.47;;;;;;;27.18;14.52;101361.63;1732612;81;21075;-64
2022/05/07 09:48:52;;;;;;;26.50;19.17;;;;;;;27.02;14.42;101346.62;1761942;79;21204;-56
2022/05/07 09:51:19;;;;;;;27.27;19.10;;;;;;;27.11;14.94;101350.39;1761253;81;21017;-58
2022/05/07 09:59:19;;;;;;;28.43;20.03;;;;;;;28.26;14.50;101348.84;1761911;79;21495;-57
2022/05/07 10:02:12;;;;;;;26.73;20.30;;;;;;;28.36;14.10;101352.30;1760808;81;22861;-57
2022/05/07 10:05:13;;;;;;;26.90;19.23;;;;;;;28.53;13.78;101355.21;1683657;85;21038;-56
2022/05/07 10:07:56;;;;;;;25.97;20.13;;;;;;;28.32;13.82;101336.49;1687808;83;22023;-56
2022/05/07 10:10:30;;;;;;;27.60;19.27;;;;;;;28.21;14.13;101334.94;1725821;81;21088;-61
2022/05/07 10:13:00;;;;;;;25.67;17.97;;;;;;;28.44;14.45;101339.41;1749993;81;21313;-57
2022/05/07 10:15:27;;;;;;;22.80;16.30;;;;;;;28.41;14.21;101336.73;1750904;80;21219;-56
2022/05/07 10:18:14;;;;;;;20.93;16.53;;;;;;;28.44;14.22;101336.73;1750920;80;21440;-56
2022/05/07 10:20:43;;;;;;;25.47;17.07;;;;;;;28.45;13.84;101323.06;1749817;80;21049;-64
2022/05/07 10:23:13;;;;;;;28.57;19.77;;;;;;;27.54;14.56;101334.83;1751996;80;21487;-56
2022/05/07 10:25:43;;;;;;;29.87;20.85;;;;;;;27.87;14.33;101323.53;1751845;80;21555;-58
2022/05/07 10:28:12;;;;;;;26.53;18.37;;;;;;;27.39;14.47;101323.62;1750541;80;21223;-58
2022/05/07 10:30:51;;;;;;;31.27;23.10;;;;;;;27.23;14.73;101325.48;1750180;80;21430;-57
2022/05/07 10:33:19;;;;;;;32.30;22.20;;;;;;;27.21;14.62;101315.59;1750394;81;21437;-58
2022/05/07 10:35:54;;;;;;;34.30;25.13;;;;;;;27.11;14.46;101319.06;1751595;80;20879;-57
2022/05/07 10:38:26;;;;;;;33.73;22.33;;;;;;;27.08;14.86;101311.54;1749671;81;21518;-63
2022/05/07 10:40:58;;;;;;;27.57;18.87;;;;;;;27.39;14.97;101303.00;1751166;80;21358;-56
2022/05/07 10:43:30;;;;;;;30.80;21.40;;;;;;;27.49;14.36;101313.42;1751151;80;21544;-56
2022/05/07 10:46:20;;;;;;;25.33;18.47;;;;;;;27.37;14.55;101300.31;1749815;81;20982;-58
2022/05/07 10:48:53;;;;;;;27.97;18.13;;;;;;;27.62;14.51;101300.82;1750074;81;21006;-56
2022/05/07 10:51:35;;;;;;;25.43;18.57;;;;;;;27.74;14.18;101300.01;1723594;81;21112;-58
2022/05/07 10:54:24;;;;;;;28.27;20.47;;;;;;;27.61;13.78;101292.50;1741951;81;21222;-58
2022/05/07 10:56:53;;;;;;;25.90;18.40;;;;;;;27.47;14.19;101306.20;1740624;80;20996;-57
2022/05/07 10:59:24;;;;;;;25.67;17.33;;;;;;;27.32;13.98;101305.16;1751151;80;21527;-62
2022/05/07 11:01:51;;;;;;;25.97;17.33;;;;;;;27.30;14.00;101298.45;1740412;80;21532;-56
2022/05/07 11:04:19;;;;;;;24.90;17.77;;;;;;;27.32;14.42;101290.97;1751244;80;20972;-58
2022/05/07 11:06:52;;;;;;;22.27;16.67;;;;;;;27.29;14.25;101293.64;1737574;80;21861;-56
2022/05/07 11:09:25;;;;;;;20.83;14.93;;;;;;;27.33;14.43;101284.53;1750307;80;20910;-65
2022/05/07 11:11:56;;;;;;;27.20;17.33;;;;;;;27.48;14.31;101279.69;1741185;80;21065;-56
2022/05/07 11:14:26;;;;;;;27.97;20.73;;;;;;;27.55;14.54;101269.50;1751379;81;20977;-56
2022/05/07 11:16:55;;;;;;;26.00;17.37;;;;;;;27.66;14.17;101272.41;1751133;81;21018;-59
2022/05/07 11:19:32;;;;;;;22.17;15.13;;;;;;;27.62;14.58;101277.52;1751361;80;21819;-58
2022/05/07 11:22:01;;;;;;;23.90;16.17;;;;;;;27.47;14.46;101272.20;1751272;81;21045;-56
2022/05/07 11:24:30;;;;;;;22.33;16.70;;;;;;;27.39;14.70;101282.92;1751097;81;22120;-55
2022/05/07 11:27:02;;;;;;;23.43;19.00;;;;;;;27.38;14.71;101273.80;1750088;81;21509;-62
2022/05/07 11:29:35;;;;;;;23.57;18.97;;;;;;;27.41;14.44;101259.88;1750962;81;21529;-58
2022/05/07 11:32:07;;;;;;;26.70;20.67;;;;;;;27.52;14.30;101259.32;1751602;80;21252;-56
2022/05/07 11:34:39;;;;;;;31.83;24.63;;;;;;;27.65;14.12;101248.02;1751533;80;20965;-63
2022/05/07 11:37:22;;;;;;;38.60;27.97;;;;;;;27.73;14.61;101242.63;1750041;81;21096;-56